createdAt,value
2018-12-18T00:00:09.031Z,3.27
2018-12-18T00:02:52.302Z,3.10
2018-12-18T00:05:34.943Z,2.73
2018-12-18T00:08:16.425Z,2.93
2018-12-18T00:11:10.377Z,2.57
2018-12-18T00:13:51.306Z,2.57
2018-12-18T00:16:34.629Z,2.70
2018-12-18T00:19:15.334Z,2.80
2018-12-18T00:21:43.595Z,2.83
2018-12-18T00:24:11.881Z,2.60
2018-12-18T00:26:55.070Z,3.23
2018-12-18T00:29:23.360Z,2.73
2018-12-18T00:32:08.218Z,2.90
2018-12-18T00:34:49.772Z,3.03
2018-12-18T00:37:31.265Z,2.70
2018-12-18T00:39:59.549Z,2.37
2018-12-18T00:42:42.328Z,3.03
2018-12-18T00:45:23.875Z,2.90
2018-12-18T00:47:52.213Z,2.40
2018-12-18T00:50:45.725Z,2.50
2018-12-18T00:53:30.140Z,2.90
2018-12-18T00:56:14.688Z,2.80
2018-12-18T00:58:59.182Z,2.50
2018-12-18T01:01:39.803Z,2.60
2018-12-18T01:04:23.288Z,3.20
2018-12-18T01:06:51.575Z,2.97
2018-12-18T01:09:36.410Z,2.77
2018-12-18T01:12:25.577Z,2.00
2018-12-18T01:15:10.410Z,2.30
2018-12-18T01:20:51.306Z,2.87
2018-12-18T01:23:34.758Z,2.30
2018-12-18T01:26:18.222Z,2.93
2018-12-18T01:28:46.567Z,2.20
2018-12-18T01:31:14.841Z,2.27
2018-12-18T01:34:00.128Z,2.77
2018-12-18T01:36:28.385Z,2.33
2018-12-18T01:38:56.671Z,2.73
2018-12-18T01:41:24.929Z,2.47
2018-12-18T01:44:22.777Z,2.53
2018-12-18T01:47:06.197Z,2.47
2018-12-18T01:49:46.942Z,3.20
2018-12-18T01:52:15.228Z,2.60
2018-12-18T01:58:08.954Z,2.40
2018-12-18T02:00:53.697Z,2.50
2018-12-18T02:03:34.392Z,2.50
2018-12-18T02:06:17.743Z,2.00
2018-12-18T02:09:02.291Z,1.87
2018-12-18T02:11:46.881Z,2.30
2018-12-18T02:14:38.913Z,2.47
2018-12-18T02:17:07.212Z,2.30
2018-12-18T02:19:48.438Z,2.10
2018-12-18T02:22:16.714Z,2.13
2018-12-18T02:25:01.541Z,2.07
2018-12-18T02:27:46.193Z,2.30
2018-12-18T02:30:39.675Z,2.07
2018-12-18T02:33:21.232Z,2.40
2018-12-18T02:36:04.577Z,2.20
2018-12-18T02:38:49.088Z,2.20
2018-12-18T02:41:32.617Z,2.03
2018-12-18T02:44:01.019Z,2.50
2018-12-18T02:46:45.710Z,2.40
2018-12-18T02:49:30.241Z,2.63
2018-12-18T02:51:58.499Z,2.17
2018-12-18T02:54:26.782Z,2.23
2018-12-18T02:57:21.116Z,2.27
2018-12-18T03:00:05.279Z,2.00
2018-12-18T03:02:49.969Z,2.03
2018-12-18T03:05:30.726Z,2.23
2018-12-18T03:08:12.264Z,2.60
2018-12-18T03:10:40.515Z,2.20
2018-12-18T03:13:25.158Z,2.10
2018-12-18T03:15:53.412Z,2.10
2018-12-18T03:18:21.670Z,2.30
2018-12-18T03:21:03.207Z,2.50
2018-12-18T03:23:31.505Z,1.70
2018-12-18T03:26:16.244Z,1.60
2018-12-18T03:28:44.525Z,1.60
2018-12-18T03:31:25.670Z,1.93
2018-12-18T03:33:54.019Z,1.87
2018-12-18T03:36:22.306Z,1.60
2018-12-18T03:38:50.563Z,1.90
2018-12-18T03:41:31.412Z,1.63
2018-12-18T03:44:12.968Z,1.87
2018-12-18T03:47:06.578Z,1.80
2018-12-18T03:49:48.014Z,1.53
2018-12-18T03:52:16.308Z,1.50
2018-12-18T03:54:44.560Z,1.43
2018-12-18T03:57:12.829Z,1.60
2018-12-18T03:59:41.105Z,1.60
2018-12-18T04:02:09.368Z,1.60
2018-12-18T04:04:37.655Z,1.50
2018-12-18T04:07:05.917Z,1.57
2018-12-18T04:09:34.303Z,1.37
2018-12-18T04:12:09.308Z,1.50
2018-12-18T04:14:37.860Z,1.80
2018-12-18T04:17:06.240Z,1.40
2018-12-18T04:19:34.516Z,1.40
2018-12-18T04:22:02.808Z,1.40
2018-12-18T04:24:47.586Z,1.40
2018-12-18T04:27:15.892Z,1.47
2018-12-18T04:29:44.144Z,2.80
2018-12-18T04:32:12.435Z,2.93
2018-12-18T04:34:43.174Z,1.70
2018-12-18T04:37:11.053Z,1.67
2018-12-18T04:39:39.300Z,2.53
2018-12-18T04:42:08.434Z,2.03
2018-12-18T04:44:36.808Z,1.97
2018-12-18T04:47:05.076Z,1.60
2018-12-18T04:49:33.357Z,2.07
2018-12-18T04:52:18.104Z,1.80
2018-12-18T04:54:46.574Z,1.73
2018-12-18T04:57:14.828Z,1.67
2018-12-18T04:59:43.114Z,1.70
2018-12-18T05:02:11.386Z,1.47
2018-12-18T05:04:39.685Z,1.40
2018-12-18T05:07:07.930Z,1.67
2018-12-18T05:09:36.187Z,1.80
2018-12-18T05:12:04.471Z,1.43
2018-12-18T05:14:32.756Z,1.77
2018-12-18T05:17:01.014Z,1.90
2018-12-18T05:19:29.297Z,2.70
2018-12-18T05:21:57.560Z,2.23
2018-12-18T05:24:25.843Z,2.00
2018-12-18T05:26:54.129Z,2.13
2018-12-18T05:29:22.400Z,2.07
2018-12-18T05:31:50.681Z,2.30
2018-12-18T05:34:18.948Z,1.80
2018-12-18T05:36:59.698Z,2.10
2018-12-18T05:39:27.978Z,2.03
2018-12-18T05:41:56.244Z,2.30
2018-12-18T05:44:24.542Z,2.00
2018-12-18T05:46:52.793Z,1.93
2018-12-18T05:49:21.056Z,1.90
2018-12-18T05:51:49.342Z,1.73
2018-12-18T05:54:17.599Z,1.97
2018-12-18T05:56:45.888Z,1.80
2018-12-18T05:59:14.170Z,1.83
2018-12-18T06:01:57.042Z,1.80
2018-12-18T06:04:25.335Z,1.73
2018-12-18T06:06:53.626Z,1.63
2018-12-18T06:09:21.892Z,2.00
2018-12-18T06:11:50.188Z,1.90
2018-12-18T06:14:18.456Z,1.80
2018-12-18T06:16:46.733Z,1.80
2018-12-18T06:19:14.986Z,1.90
2018-12-18T06:21:43.275Z,1.73
2018-12-18T06:24:11.633Z,1.83
2018-12-18T06:26:39.889Z,1.83
2018-12-18T06:29:08.169Z,2.13
2018-12-18T06:31:36.541Z,1.73
2018-12-18T06:34:04.832Z,1.77
2018-12-18T06:36:33.134Z,1.90
2018-12-18T06:39:01.405Z,1.90
2018-12-18T06:41:29.660Z,1.90
2018-12-18T06:43:57.955Z,2.03
2018-12-18T06:46:26.217Z,1.83
2018-12-18T06:48:54.487Z,2.13
2018-12-18T06:51:22.774Z,1.93
2018-12-18T06:53:51.063Z,2.10
2018-12-18T06:56:19.357Z,1.73
2018-12-18T06:58:47.647Z,2.03
2018-12-18T07:01:15.940Z,1.83
2018-12-18T07:03:44.207Z,1.53
2018-12-18T07:06:12.488Z,1.80
2018-12-18T07:08:40.751Z,1.40
2018-12-18T07:11:09.028Z,1.57
2018-12-18T07:13:37.304Z,1.60
2018-12-18T07:16:05.573Z,2.27
2018-12-18T07:18:33.835Z,1.53
2018-12-18T07:21:02.106Z,1.67
2018-12-18T07:23:42.741Z,1.43
2018-12-18T07:26:11.014Z,1.83
2018-12-18T07:28:39.310Z,1.53
2018-12-18T07:31:07.660Z,1.60
2018-12-18T07:33:37.046Z,1.30
2018-12-18T07:36:05.315Z,1.60
2018-12-18T07:38:33.585Z,1.63
2018-12-18T07:41:01.874Z,1.97
2018-12-18T07:43:30.170Z,1.23
2018-12-18T07:45:58.520Z,1.30
2018-12-18T07:48:26.786Z,1.23
2018-12-18T07:51:21.784Z,1.50
2018-12-18T07:53:50.046Z,1.37
2018-12-18T07:56:18.304Z,1.27
2018-12-18T07:58:46.597Z,1.60
2018-12-18T08:01:40.103Z,1.40
2018-12-18T08:04:24.709Z,1.20
2018-12-18T08:09:58.635Z,1.03
2018-12-18T08:15:33.482Z,1.03
2018-12-18T08:18:01.768Z,1.10
2018-12-18T08:20:46.261Z,1.20
2018-12-18T08:23:14.637Z,1.13
2018-12-18T08:25:55.602Z,1.53
2018-12-18T08:28:36.267Z,1.20
2018-12-18T08:31:19.615Z,1.00
2018-12-18T08:33:47.916Z,1.20
2018-12-18T08:36:30.895Z,1.00
2018-12-18T08:39:11.551Z,1.37
2018-12-18T08:41:39.830Z,2.33
2018-12-18T08:44:20.963Z,2.50
2018-12-18T08:46:49.225Z,2.33
2018-12-18T08:49:30.156Z,1.50
2018-12-18T08:51:58.454Z,1.37
2018-12-18T08:54:30.315Z,1.40
2018-12-18T08:57:11.761Z,1.70
2018-12-18T08:59:45.694Z,1.80
2018-12-18T09:02:29.037Z,1.47
2018-12-18T09:05:13.554Z,1.40
2018-12-18T09:07:41.826Z,1.00
2018-12-18T09:10:26.970Z,1.40
2018-12-18T09:13:03.341Z,1.30
2018-12-18T09:15:50.261Z,1.50
2018-12-18T09:18:27.023Z,1.87
2018-12-18T09:21:01.883Z,1.47
2018-12-18T09:23:43.386Z,1.37
2018-12-18T09:26:28.022Z,1.40
2018-12-18T09:29:09.082Z,1.83
2018-12-18T09:31:49.906Z,1.23
2018-12-18T09:34:21.252Z,1.87
2018-12-18T09:37:02.490Z,1.50
2018-12-18T09:39:44.013Z,1.30
2018-12-18T09:45:34.309Z,1.60
2018-12-18T09:48:19.016Z,1.47
2018-12-18T09:50:47.289Z,2.27
2018-12-18T09:53:28.335Z,2.47
2018-12-18T09:56:09.080Z,1.50
2018-12-18T09:58:49.749Z,2.23
2018-12-18T10:01:34.399Z,1.53
2018-12-18T10:04:15.963Z,1.30
2018-12-18T10:07:07.874Z,1.30
2018-12-18T10:09:48.929Z,3.27
2018-12-18T10:12:39.780Z,1.80
2018-12-18T10:15:09.531Z,1.00
2018-12-18T10:17:43.976Z,1.30
2018-12-18T10:20:25.318Z,1.63
2018-12-18T10:23:12.563Z,2.30
2018-12-18T10:25:53.535Z,1.10
2018-12-18T10:28:24.733Z,1.10
2018-12-18T10:31:05.786Z,1.50
2018-12-18T10:33:47.407Z,1.40
2018-12-18T10:36:31.955Z,1.20
2018-12-18T10:39:12.627Z,1.07
2018-12-18T10:41:54.148Z,1.23
2018-12-18T10:44:28.325Z,1.17
2018-12-18T10:47:11.554Z,1.73
2018-12-18T10:49:56.463Z,1.30
2018-12-18T10:52:41.109Z,1.10
2018-12-18T10:55:30.757Z,1.50
2018-12-18T10:58:24.674Z,1.20
2018-12-18T11:01:11.607Z,1.50
2018-12-18T11:03:52.667Z,0.90
2018-12-18T11:06:22.228Z,1.30
2018-12-18T11:09:08.982Z,1.20
2018-12-18T11:11:40.978Z,1.23
2018-12-18T11:14:22.205Z,1.40
2018-12-18T11:17:02.844Z,1.37
2018-12-18T11:19:41.094Z,1.03
2018-12-18T11:22:32.258Z,1.07
2018-12-18T11:25:15.408Z,1.07
2018-12-18T11:27:46.651Z,1.00
2018-12-18T11:30:21.586Z,0.93
2018-12-18T11:32:53.666Z,1.03
2018-12-18T11:35:25.689Z,1.03
2018-12-18T11:38:06.850Z,1.00
2018-12-18T11:40:39.681Z,1.33
2018-12-18T11:43:11.473Z,0.97
2018-12-18T11:48:44.292Z,1.20
2018-12-18T11:51:28.911Z,1.13
2018-12-18T11:54:10.495Z,1.20
2018-12-18T11:56:51.225Z,1.30
2018-12-18T11:59:25.547Z,1.50
2018-12-18T12:02:07.191Z,1.80
2018-12-18T12:04:48.018Z,1.40
2018-12-18T12:07:17.727Z,1.20
2018-12-18T12:09:52.184Z,0.90
2018-12-18T12:12:29.006Z,1.73
2018-12-18T12:15:01.605Z,1.77
2018-12-18T12:20:49.150Z,1.20
2018-12-18T12:26:33.194Z,1.43
2018-12-18T12:29:04.447Z,1.80
2018-12-18T12:37:48.814Z,1.20
2018-12-18T12:43:36.117Z,1.37
2018-12-18T12:46:23.390Z,1.67
2018-12-18T12:51:54.939Z,1.80
2018-12-18T12:54:26.952Z,1.57
2018-12-18T12:57:08.582Z,1.40
2018-12-18T13:02:46.983Z,2.27
2018-12-18T13:05:23.288Z,1.90
2018-12-18T13:07:56.149Z,1.90
2018-12-18T13:10:25.899Z,1.97
2018-12-18T13:13:06.607Z,2.53
2018-12-18T13:15:36.377Z,2.03
2018-12-18T13:18:06.552Z,2.03
2018-12-18T13:20:37.803Z,1.87
2018-12-18T13:23:09.761Z,2.40
2018-12-18T13:25:45.622Z,2.10
2018-12-18T13:28:19.661Z,2.20
2018-12-18T13:30:50.914Z,2.03
2018-12-18T13:33:23.011Z,2.27
2018-12-18T13:35:57.922Z,2.30
2018-12-18T13:38:29.191Z,2.57
2018-12-18T13:40:57.477Z,2.20
2018-12-18T13:46:33.622Z,2.20
2018-12-18T13:49:08.392Z,2.60
2018-12-18T13:54:46.367Z,3.30
2018-12-18T13:57:20.958Z,6.90
2018-12-18T13:59:50.108Z,3.70
2018-12-18T14:02:20.343Z,2.80
2018-12-18T14:04:51.903Z,2.53
2018-12-18T14:07:33.347Z,3.30
2018-12-18T14:10:06.587Z,2.70
2018-12-18T14:12:44.282Z,2.00
2018-12-18T14:15:25.754Z,2.10
2018-12-18T14:18:00.055Z,1.70
2018-12-18T14:20:43.446Z,2.00
2018-12-18T14:23:15.294Z,2.10
2018-12-18T14:25:47.425Z,1.70
2018-12-18T14:28:28.261Z,1.90
2018-12-18T14:30:59.623Z,1.50
2018-12-18T14:33:30.966Z,1.57
2018-12-18T14:36:09.764Z,1.37
2018-12-18T14:38:41.395Z,1.70
2018-12-18T14:41:13.246Z,1.20
2018-12-18T14:43:44.635Z,1.50
2018-12-18T14:46:18.726Z,1.30
2018-12-18T14:48:50.284Z,1.10
2018-12-18T14:51:31.559Z,1.10
2018-12-18T14:54:06.000Z,1.33
2018-12-18T14:56:37.310Z,1.23
2018-12-18T14:59:07.433Z,1.30
2018-12-18T15:01:38.666Z,1.53
2018-12-18T15:04:10.012Z,2.53
2018-12-18T15:06:51.601Z,1.83
2018-12-18T15:09:32.654Z,4.23
2018-12-18T15:12:26.138Z,2.00
2018-12-18T15:14:55.830Z,1.43
2018-12-18T15:17:37.181Z,1.30
2018-12-18T15:20:15.485Z,1.30
2018-12-18T15:22:47.062Z,1.50
2018-12-18T15:25:28.411Z,1.37
2018-12-18T15:31:28.415Z,1.27
2018-12-18T15:34:09.101Z,1.43
2018-12-18T15:39:57.597Z,1.27
2018-12-18T15:42:45.689Z,1.10
2018-12-18T15:45:26.726Z,1.60
2018-12-18T15:48:07.355Z,1.17
2018-12-18T15:50:48.022Z,1.60
2018-12-18T15:53:29.498Z,1.40
2018-12-18T15:55:57.795Z,1.60
2018-12-18T15:58:38.863Z,1.53
2018-12-18T16:01:08.954Z,2.03
2018-12-18T16:03:44.575Z,2.47
2018-12-18T16:15:35.162Z,1.60
2018-12-18T16:18:04.987Z,1.60
2018-12-18T16:20:37.033Z,1.60
2018-12-18T16:29:30.299Z,1.33
2018-12-18T16:32:19.673Z,1.40
2018-12-18T16:35:00.850Z,1.13
2018-12-18T16:37:48.265Z,1.40
2018-12-18T16:40:19.970Z,1.50
2018-12-18T16:45:55.066Z,2.10
2018-12-18T16:48:24.990Z,1.50
2018-12-18T16:54:25.627Z,2.03
2018-12-18T16:56:54.650Z,1.50
2018-12-18T16:59:29.531Z,1.97
2018-12-18T17:01:57.885Z,2.40
2018-12-18T17:04:26.269Z,2.83
2018-12-18T17:07:02.201Z,2.33
2018-12-18T17:09:30.452Z,2.57
2018-12-18T17:11:58.736Z,2.27
2018-12-18T17:14:27.126Z,2.50
2018-12-18T17:20:05.684Z,2.97
2018-12-18T17:22:33.971Z,3.50
2018-12-18T17:25:02.305Z,2.90
2018-12-18T17:27:30.574Z,4.87
2018-12-18T17:29:58.836Z,5.80
2018-12-18T17:32:53.385Z,4.90
2018-12-18T17:35:21.668Z,4.20
2018-12-18T17:38:15.476Z,4.00
2018-12-18T17:40:57.258Z,4.23
2018-12-18T17:43:45.746Z,3.70
2018-12-18T17:46:35.732Z,3.30
2018-12-18T17:49:16.659Z,5.97
2018-12-18T17:51:44.927Z,6.90
2018-12-18T17:57:19.594Z,4.13
2018-12-18T17:59:56.907Z,6.50
2018-12-18T18:02:37.882Z,5.77
2018-12-18T18:11:31.447Z,3.30
2018-12-18T18:17:27.246Z,3.47
2018-12-18T18:20:19.217Z,3.30
2018-12-18T18:22:50.619Z,3.27
2018-12-18T18:25:42.314Z,3.47
2018-12-18T18:28:10.590Z,3.60
2018-12-18T18:34:05.300Z,3.80
2018-12-18T18:36:33.584Z,3.20
2018-12-18T18:42:18.655Z,3.10
2018-12-18T18:44:55.995Z,3.13
2018-12-18T18:47:36.812Z,2.93
2018-12-18T18:53:19.984Z,3.27
2018-12-18T18:55:48.276Z,3.80
2018-12-18T18:58:17.565Z,3.67
2018-12-18T19:00:49.571Z,3.70
2018-12-18T19:03:23.917Z,3.43
2018-12-18T19:06:05.171Z,3.77
2018-12-18T19:08:46.830Z,2.90
2018-12-18T19:11:17.014Z,2.90
2018-12-18T19:13:58.153Z,3.07
2018-12-18T19:16:41.643Z,2.77
2018-12-18T19:19:09.901Z,2.40
2018-12-18T19:22:01.417Z,2.90
2018-12-18T19:24:29.702Z,2.73
2018-12-18T19:30:17.423Z,2.23
2018-12-18T19:32:58.888Z,2.60
2018-12-18T19:45:13.439Z,2.37
2018-12-18T19:47:44.918Z,2.30
2018-12-18T19:50:30.031Z,3.43
2018-12-18T19:53:20.313Z,3.47
2018-12-18T19:59:24.783Z,4.70
2018-12-18T20:08:16.710Z,2.37
2018-12-18T20:10:57.977Z,2.73
2018-12-18T20:13:43.441Z,2.83
2018-12-18T20:16:24.201Z,2.10
2018-12-18T20:18:52.534Z,2.60
2018-12-18T20:21:44.052Z,2.37
2018-12-18T20:24:18.343Z,2.23
2018-12-18T20:26:54.835Z,2.40
2018-12-18T20:35:36.488Z,2.10
2018-12-18T20:38:04.894Z,2.23
2018-12-18T20:40:33.210Z,2.03
2018-12-18T20:43:16.268Z,1.90
2018-12-18T20:46:01.378Z,1.73
2018-12-18T20:48:42.192Z,2.07
2018-12-18T20:51:23.167Z,2.17
2018-12-18T20:57:18.011Z,2.20
2018-12-18T20:59:49.340Z,2.13
2018-12-18T21:02:20.968Z,2.10
2018-12-18T21:04:58.221Z,2.13
2018-12-18T21:07:40.460Z,2.10
2018-12-18T21:10:15.338Z,2.20
2018-12-18T21:13:06.101Z,2.00
2018-12-18T21:15:37.409Z,2.20
2018-12-18T21:21:15.627Z,2.10
2018-12-18T21:23:56.840Z,2.50
2018-12-18T21:26:42.301Z,2.57
2018-12-18T21:29:12.563Z,2.37
2018-12-18T21:31:40.860Z,2.17
2018-12-18T21:37:33.143Z,2.33
2018-12-18T21:43:26.625Z,2.60
2018-12-18T21:45:56.797Z,2.37
2018-12-18T21:51:38.698Z,2.63
2018-12-18T21:54:06.950Z,2.40
2018-12-18T21:56:35.835Z,2.50
2018-12-18T21:59:04.150Z,2.20
2018-12-18T22:01:42.745Z,2.30
2018-12-18T22:04:11.034Z,2.40
2018-12-18T22:07:02.718Z,2.47
2018-12-18T22:09:34.521Z,2.43
2018-12-18T22:12:22.423Z,1.97
2018-12-18T22:15:16.393Z,3.00
2018-12-18T22:21:17.540Z,2.67
2018-12-18T22:26:48.948Z,2.60
2018-12-18T22:29:47.243Z,1.93
2018-12-18T22:32:15.548Z,2.00
2018-12-18T22:34:43.805Z,2.10
2018-12-18T22:37:31.998Z,2.30
2018-12-18T22:40:00.256Z,2.07
2018-12-18T22:42:41.543Z,1.87
2018-12-18T22:45:22.225Z,1.60
2018-12-18T22:47:52.303Z,1.87
2018-12-18T22:50:33.405Z,1.90
2018-12-18T22:53:14.161Z,1.90
2018-12-18T22:55:45.474Z,1.70
2018-12-18T23:04:28.209Z,1.63
2018-12-18T23:07:17.073Z,1.73
2018-12-18T23:09:45.341Z,1.60
2018-12-18T23:12:27.898Z,1.63
2018-12-18T23:18:26.860Z,2.10
2018-12-18T23:21:04.777Z,1.80
2018-12-18T23:26:59.049Z,1.83
2018-12-18T23:29:39.995Z,1.63
2018-12-18T23:35:21.701Z,1.87
2018-12-18T23:44:24.345Z,1.60
2018-12-18T23:47:22.411Z,2.00
2018-12-18T23:53:07.915Z,1.90
2018-12-18T23:55:51.154Z,2.10
2018-12-18T23:58:33.699Z,1.67
